createdAt,value
2023-03-15T00:00:54.174Z,1008.4
2023-03-15T00:01:54.139Z,1008.3
2023-03-15T00:02:54.159Z,1008.3
2023-03-15T00:03:54.185Z,1008.3
2023-03-15T00:04:54.138Z,1008.3
2023-03-15T00:05:54.170Z,1008.4
2023-03-15T00:06:54.169Z,1008.3
2023-03-15T00:08:54.145Z,1008.4
2023-03-15T00:09:54.175Z,1008.4
2023-03-15T00:10:54.136Z,1008.4
2023-03-15T00:11:54.135Z,1008.4
2023-03-15T00:12:54.135Z,1008.4
2023-03-15T00:13:54.148Z,1008.4
2023-03-15T00:14:54.150Z,1008.4
2023-03-15T00:15:54.258Z,1008.4
2023-03-15T00:16:54.156Z,1008.4
2023-03-15T00:17:54.182Z,1008.5
2023-03-15T00:18:54.140Z,1008.5
2023-03-15T00:19:54.132Z,1008.5
2023-03-15T00:20:54.133Z,1008.5
2023-03-15T00:21:54.160Z,1008.5
2023-03-15T00:22:54.160Z,1008.5
2023-03-15T00:24:54.142Z,1008.6
2023-03-15T00:25:54.174Z,1008.6
2023-03-15T00:26:54.145Z,1008.6
2023-03-15T00:27:54.144Z,1008.6
2023-03-15T00:28:54.146Z,1008.6
2023-03-15T00:30:54.162Z,1008.6
2023-03-15T00:31:54.173Z,1008.6
2023-03-15T00:32:54.180Z,1008.6
2023-03-15T00:33:54.139Z,1008.6
2023-03-15T00:34:54.254Z,1008.6
2023-03-15T00:35:54.256Z,1008.6
2023-03-15T00:36:54.153Z,1008.6
2023-03-15T00:37:54.142Z,1008.6
2023-03-15T00:38:54.152Z,1008.6
2023-03-15T00:39:54.153Z,1008.6
2023-03-15T00:40:54.152Z,1008.6
2023-03-15T00:41:54.156Z,1008.6
2023-03-15T00:42:54.142Z,1008.6
2023-03-15T00:43:54.153Z,1008.6
2023-03-15T00:44:54.149Z,1008.7
2023-03-15T00:45:54.145Z,1008.7
2023-03-15T00:46:54.196Z,1008.7
2023-03-15T00:47:54.171Z,1008.8
2023-03-15T00:48:54.139Z,1008.8
2023-03-15T00:49:54.139Z,1008.8
2023-03-15T00:51:54.134Z,1008.8
2023-03-15T00:52:54.152Z,1008.8
2023-03-15T00:53:54.152Z,1008.8
2023-03-15T00:54:54.144Z,1008.8
2023-03-15T00:55:54.145Z,1008.8
2023-03-15T00:56:54.166Z,1008.8
2023-03-15T00:57:54.157Z,1008.9
2023-03-15T00:58:54.194Z,1008.8
2023-03-15T00:59:54.164Z,1008.8
2023-03-15T01:00:54.148Z,1008.8
2023-03-15T01:01:54.275Z,1008.9
2023-03-15T01:02:54.268Z,1008.9
2023-03-15T01:03:54.190Z,1008.9
2023-03-15T01:04:54.158Z,1008.9
2023-03-15T01:05:54.138Z,1009
2023-03-15T01:06:54.140Z,1009
2023-03-15T01:07:48.629Z,1008.9
2023-03-15T01:08:54.148Z,1009
2023-03-15T01:10:54.143Z,1008.9
2023-03-15T01:11:54.172Z,1008.9
2023-03-15T01:12:54.166Z,1008.9
2023-03-15T01:13:54.168Z,1008.9
2023-03-15T01:14:54.154Z,1008.9
2023-03-15T01:15:54.202Z,1008.9
2023-03-15T01:16:54.148Z,1008.9
2023-03-15T01:17:54.157Z,1008.9
2023-03-15T01:18:54.190Z,1008.9
2023-03-15T01:19:54.144Z,1008.9
2023-03-15T01:20:54.147Z,1008.9
2023-03-15T01:21:54.148Z,1008.9
2023-03-15T01:22:54.174Z,1008.9
2023-03-15T01:23:54.230Z,1008.8
2023-03-15T01:24:54.157Z,1008.9
2023-03-15T01:25:54.181Z,1008.9
2023-03-15T01:26:54.150Z,1008.9
2023-03-15T01:27:54.141Z,1008.9
2023-03-15T01:28:54.163Z,1008.9
2023-03-15T01:29:54.151Z,1008.9
2023-03-15T01:31:54.292Z,1009
2023-03-15T01:32:54.253Z,1008.9
2023-03-15T01:33:54.190Z,1008.9
2023-03-15T01:34:54.175Z,1008.9
2023-03-15T01:35:54.174Z,1008.9
2023-03-15T01:36:54.165Z,1008.9
2023-03-15T01:37:54.174Z,1008.9
2023-03-15T01:38:54.149Z,1008.9
2023-03-15T01:39:54.160Z,1009
2023-03-15T01:40:54.173Z,1008.9
2023-03-15T01:41:54.186Z,1008.9
2023-03-15T01:42:54.175Z,1008.9
2023-03-15T01:43:54.174Z,1008.9
2023-03-15T01:44:54.157Z,1008.9
2023-03-15T01:45:54.174Z,1008.9
2023-03-15T01:46:54.192Z,1008.9
2023-03-15T01:47:54.183Z,1009
2023-03-15T01:48:54.159Z,1009
2023-03-15T01:49:54.154Z,1009
2023-03-15T01:50:54.173Z,1009
2023-03-15T01:51:54.214Z,1009.1
2023-03-15T01:52:54.159Z,1009
2023-03-15T01:54:54.156Z,1009.1
2023-03-15T01:55:54.152Z,1009
2023-03-15T01:56:54.154Z,1009.1
2023-03-15T01:57:54.158Z,1009.1
2023-03-15T01:58:54.171Z,1009.1
2023-03-15T01:59:54.169Z,1009.2
2023-03-15T02:00:54.197Z,1009.3
2023-03-15T02:01:54.172Z,1009.2
2023-03-15T02:02:54.166Z,1009.2
2023-03-15T02:03:54.169Z,1009.3
2023-03-15T02:04:54.205Z,1009.2
2023-03-15T02:05:54.160Z,1009.2
2023-03-15T02:06:54.233Z,1009.2
2023-03-15T02:07:54.179Z,1009.2
2023-03-15T02:08:54.177Z,1009.2
2023-03-15T02:09:54.165Z,1009.2
2023-03-15T02:10:54.166Z,1009.3
2023-03-15T02:11:54.164Z,1009.3
2023-03-15T02:13:54.163Z,1009.3
2023-03-15T02:14:54.174Z,1009.3
2023-03-15T02:15:54.163Z,1009.4
2023-03-15T02:16:54.164Z,1009.3
2023-03-15T02:17:54.181Z,1009.3
2023-03-15T02:18:54.156Z,1009.4
2023-03-15T02:19:54.164Z,1009.4
2023-03-15T02:20:54.169Z,1009.4
2023-03-15T02:21:54.162Z,1009.4
2023-03-15T02:22:54.182Z,1009.4
2023-03-15T02:23:54.162Z,1009.4
2023-03-15T02:24:54.158Z,1009.4
2023-03-15T02:25:54.163Z,1009.4
2023-03-15T02:26:54.195Z,1009.4
2023-03-15T02:27:54.157Z,1009.4
2023-03-15T02:28:54.180Z,1009.4
2023-03-15T02:29:54.184Z,1009.4
2023-03-15T02:30:54.156Z,1009.4
2023-03-15T02:31:54.192Z,1009.4
2023-03-15T02:32:54.249Z,1009.4
2023-03-15T02:34:54.198Z,1009.4
2023-03-15T02:35:54.262Z,1009.4
2023-03-15T02:36:54.205Z,1009.4
2023-03-15T02:37:54.182Z,1009.4
2023-03-15T02:38:54.186Z,1009.4
2023-03-15T02:39:54.172Z,1009.4
2023-03-15T02:40:54.182Z,1009.4
2023-03-15T02:41:54.169Z,1009.4
2023-03-15T02:42:54.155Z,1009.4
2023-03-15T02:43:54.159Z,1009.5
2023-03-15T02:44:54.173Z,1009.4
2023-03-15T02:45:54.192Z,1009.4
2023-03-15T02:46:54.180Z,1009.4
2023-03-15T02:47:54.177Z,1009.4
2023-03-15T02:48:54.202Z,1009.5
2023-03-15T02:49:54.185Z,1009.5
2023-03-15T02:50:54.173Z,1009.4
2023-03-15T02:51:54.221Z,1009.5
2023-03-15T02:52:54.188Z,1009.5
2023-03-15T02:53:54.204Z,1009.5
2023-03-15T02:55:54.186Z,1009.5
2023-03-15T02:56:54.183Z,1009.6
2023-03-15T02:57:54.185Z,1009.5
2023-03-15T02:58:54.550Z,1009.6
2023-03-15T02:59:54.170Z,1009.6
2023-03-15T03:00:54.304Z,1009.6
2023-03-15T03:01:54.176Z,1009.6
2023-03-15T03:02:54.168Z,1009.6
2023-03-15T03:03:54.179Z,1009.6
2023-03-15T03:04:54.178Z,1009.6
2023-03-15T03:05:54.172Z,1009.6
2023-03-15T03:06:54.202Z,1009.6
2023-03-15T03:07:54.192Z,1009.6
2023-03-15T03:08:54.181Z,1009.7
2023-03-15T03:09:54.178Z,1009.6
2023-03-15T03:10:54.173Z,1009.7
2023-03-15T03:11:54.164Z,1009.7
2023-03-15T03:12:54.177Z,1009.8
2023-03-15T03:13:54.197Z,1009.8
2023-03-15T03:14:54.181Z,1009.8
2023-03-15T03:16:54.270Z,1009.8
2023-03-15T03:17:54.197Z,1009.8
2023-03-15T03:18:54.189Z,1009.9
2023-03-15T03:19:54.189Z,1009.9
2023-03-15T03:20:54.190Z,1009.9
2023-03-15T03:21:54.216Z,1010
2023-03-15T03:22:54.194Z,1010
2023-03-15T03:23:54.189Z,1010
2023-03-15T03:24:54.175Z,1010
2023-03-15T03:25:54.197Z,1010
2023-03-15T03:27:54.171Z,1010
2023-03-15T03:28:54.165Z,1010.1
2023-03-15T03:29:54.175Z,1010.1
2023-03-15T03:30:54.286Z,1010.2
2023-03-15T03:31:54.172Z,1010.1
2023-03-15T03:32:54.263Z,1010.2
2023-03-15T03:33:54.182Z,1010.2
2023-03-15T03:34:54.188Z,1010.2
2023-03-15T03:35:54.281Z,1010.2
2023-03-15T03:36:54.182Z,1010.2
2023-03-15T03:37:54.197Z,1010.3
2023-03-15T03:38:54.189Z,1010.3
2023-03-15T03:39:54.170Z,1010.3
2023-03-15T03:40:54.952Z,1010.3
2023-03-15T03:41:54.177Z,1010.3
2023-03-15T03:42:54.175Z,1010.3
2023-03-15T03:43:54.174Z,1010.3
2023-03-15T03:44:54.173Z,1010.3
2023-03-15T03:45:54.188Z,1010.3
2023-03-15T03:46:54.175Z,1010.4
2023-03-15T03:48:54.175Z,1010.4
2023-03-15T03:49:54.259Z,1010.4
2023-03-15T03:50:54.169Z,1010.3
2023-03-15T03:51:54.182Z,1010.4
2023-03-15T03:52:54.190Z,1010.4
2023-03-15T03:53:54.197Z,1010.5
2023-03-15T03:54:54.179Z,1010.5
2023-03-15T03:55:54.174Z,1010.5
2023-03-15T03:56:54.172Z,1010.5
2023-03-15T03:57:54.192Z,1010.5
2023-03-15T03:58:54.173Z,1010.6
2023-03-15T03:59:54.192Z,1010.6
2023-03-15T04:00:54.317Z,1010.6
2023-03-15T04:01:54.195Z,1010.6
2023-03-15T04:02:54.378Z,1010.6
2023-03-15T04:03:54.204Z,1010.6
2023-03-15T04:04:54.254Z,1010.7
2023-03-15T04:05:54.188Z,1010.7
2023-03-15T04:06:54.181Z,1010.7
2023-03-15T04:07:54.177Z,1010.7
2023-03-15T04:08:54.241Z,1010.7
2023-03-15T04:09:54.192Z,1010.7
2023-03-15T04:10:54.191Z,1010.8
2023-03-15T04:11:54.178Z,1010.7
2023-03-15T04:12:54.190Z,1010.8
2023-03-15T04:13:54.182Z,1010.8
2023-03-15T04:14:54.190Z,1010.7
2023-03-15T04:15:54.234Z,1010.8
2023-03-15T04:16:54.309Z,1010.8
2023-03-15T04:17:54.179Z,1010.8
2023-03-15T04:18:54.184Z,1010.8
2023-03-15T04:19:54.190Z,1010.8
2023-03-15T04:20:54.178Z,1010.9
2023-03-15T04:21:54.183Z,1010.8
2023-03-15T04:22:54.192Z,1010.9
2023-03-15T04:23:54.190Z,1010.9
2023-03-15T04:24:54.177Z,1010.9
2023-03-15T04:25:54.184Z,1010.9
2023-03-15T04:26:54.206Z,1010.9
2023-03-15T04:27:54.212Z,1010.9
2023-03-15T04:28:54.200Z,1010.9
2023-03-15T04:30:54.190Z,1010.9
2023-03-15T04:31:54.201Z,1010.9
2023-03-15T04:32:54.310Z,1010.9
2023-03-15T04:33:54.181Z,1010.9
2023-03-15T04:34:54.187Z,1010.9
2023-03-15T04:35:54.216Z,1010.9
2023-03-15T04:36:54.191Z,1010.9
2023-03-15T04:37:54.216Z,1010.9
2023-03-15T04:38:54.188Z,1011
2023-03-15T04:39:54.210Z,1010.9
2023-03-15T04:40:54.207Z,1011
2023-03-15T04:41:54.198Z,1011
2023-03-15T04:42:54.202Z,1011
2023-03-15T04:43:54.211Z,1011
2023-03-15T04:44:54.220Z,1010.9
2023-03-15T04:45:54.189Z,1011
2023-03-15T04:46:54.252Z,1011
2023-03-15T04:47:54.199Z,1011
2023-03-15T04:48:54.189Z,1011
2023-03-15T04:49:54.187Z,1011
2023-03-15T04:51:54.204Z,1011
2023-03-15T04:52:54.250Z,1011
2023-03-15T04:53:54.193Z,1011
2023-03-15T04:54:54.195Z,1011
2023-03-15T04:55:54.200Z,1011
2023-03-15T04:56:54.190Z,1011
2023-03-15T04:57:54.214Z,1011
2023-03-15T04:58:54.209Z,1011
2023-03-15T04:59:54.206Z,1011.1
2023-03-15T05:00:54.420Z,1011.1
2023-03-15T05:02:54.206Z,1011.1
2023-03-15T05:03:54.195Z,1011.1
2023-03-15T05:04:54.198Z,1011.1
2023-03-15T05:05:54.192Z,1011.1
2023-03-15T05:06:54.193Z,1011.1
2023-03-15T05:07:54.212Z,1011.1
2023-03-15T05:08:54.198Z,1011.1
2023-03-15T05:09:54.216Z,1011.1
2023-03-15T05:10:54.251Z,1011.2
2023-03-15T05:12:54.192Z,1011.2
2023-03-15T05:13:54.207Z,1011.2
2023-03-15T05:14:54.487Z,1011.2
2023-03-15T05:15:54.273Z,1011.2
2023-03-15T05:16:54.203Z,1011.3
2023-03-15T05:17:54.244Z,1011.3
2023-03-15T05:18:54.198Z,1011.3
2023-03-15T05:19:54.199Z,1011.3
2023-03-15T05:20:54.206Z,1011.3
2023-03-15T05:21:54.196Z,1011.3
2023-03-15T05:22:54.191Z,1011.3
2023-03-15T05:23:54.201Z,1011.3
2023-03-15T05:24:54.225Z,1011.4
2023-03-15T05:25:54.200Z,1011.5
2023-03-15T05:26:54.252Z,1011.5
2023-03-15T05:27:54.224Z,1011.5
2023-03-15T05:28:54.195Z,1011.5
2023-03-15T05:29:54.203Z,1011.5
2023-03-15T05:30:54.212Z,1011.5
2023-03-15T05:31:54.272Z,1011.5
2023-03-15T05:32:54.317Z,1011.6
2023-03-15T05:33:54.310Z,1011.6
2023-03-15T05:34:54.207Z,1011.6
2023-03-15T05:35:54.351Z,1011.6
2023-03-15T05:36:54.200Z,1011.6
2023-03-15T05:37:54.197Z,1011.6
2023-03-15T05:38:54.203Z,1011.6
2023-03-15T05:39:54.206Z,1011.7
2023-03-15T05:41:54.225Z,1011.7
2023-03-15T05:42:54.197Z,1011.7
2023-03-15T05:43:54.197Z,1011.7
2023-03-15T05:44:54.210Z,1011.8
2023-03-15T05:45:54.556Z,1011.8
2023-03-15T05:46:54.206Z,1011.8
2023-03-15T05:47:54.203Z,1011.8
2023-03-15T05:48:54.205Z,1011.8
2023-03-15T05:49:54.210Z,1011.8
2023-03-15T05:50:54.231Z,1011.9
2023-03-15T05:51:54.209Z,1011.9
2023-03-15T05:52:54.195Z,1011.9
2023-03-15T05:54:54.213Z,1012
2023-03-15T05:55:54.200Z,1012
2023-03-15T05:56:54.197Z,1012
2023-03-15T05:57:54.196Z,1012
2023-03-15T05:58:54.278Z,1012
2023-03-15T05:59:55.182Z,1012.1
2023-03-15T06:00:54.201Z,1012.1
2023-03-15T06:01:54.204Z,1012.1
2023-03-15T06:02:54.224Z,1012.1
2023-03-15T06:03:54.266Z,1012.2
2023-03-15T06:05:54.204Z,1012.2
2023-03-15T06:06:54.195Z,1012.3
2023-03-15T06:07:54.200Z,1012.3
2023-03-15T06:08:54.205Z,1012.3
2023-03-15T06:09:54.200Z,1012.3
2023-03-15T06:10:54.205Z,1012.3
2023-03-15T06:11:54.205Z,1012.3
2023-03-15T06:12:54.238Z,1012.3
2023-03-15T06:13:54.220Z,1012.3
2023-03-15T06:14:54.218Z,1012.3
2023-03-15T06:15:54.242Z,1012.3
2023-03-15T06:16:54.308Z,1012.3
2023-03-15T06:17:54.220Z,1012.3
2023-03-15T06:18:54.210Z,1012.4
2023-03-15T06:19:54.217Z,1012.4
2023-03-15T06:20:54.227Z,1012.4
2023-03-15T06:21:54.242Z,1012.4
2023-03-15T06:22:54.219Z,1012.3
2023-03-15T06:24:54.206Z,1012.4
2023-03-15T06:25:54.209Z,1012.4
2023-03-15T06:26:54.204Z,1012.4
2023-03-15T06:27:54.209Z,1012.4
2023-03-15T06:28:54.206Z,1012.4
2023-03-15T06:29:54.199Z,1012.5
2023-03-15T06:30:54.289Z,1012.5
2023-03-15T06:31:54.225Z,1012.5
2023-03-15T06:32:54.306Z,1012.5
2023-03-15T06:33:54.234Z,1012.5
2023-03-15T06:34:54.232Z,1012.5
2023-03-15T06:35:54.244Z,1012.5
2023-03-15T06:37:54.300Z,1012.5
2023-03-15T06:38:54.247Z,1012.5
2023-03-15T06:39:54.238Z,1012.5
2023-03-15T06:40:54.221Z,1012.7
2023-03-15T06:41:54.224Z,1012.7
2023-03-15T06:42:54.226Z,1012.7
2023-03-15T06:43:54.247Z,1012.6
2023-03-15T06:44:54.211Z,1012.7
2023-03-15T06:45:54.310Z,1012.7
2023-03-15T06:46:54.222Z,1012.7
2023-03-15T06:47:54.212Z,1012.7
2023-03-15T06:48:55.139Z,1012.7
2023-03-15T06:49:54.926Z,1012.7
2023-03-15T06:50:54.242Z,1012.8
2023-03-15T06:51:54.288Z,1012.8
2023-03-15T06:52:54.212Z,1012.8
2023-03-15T06:53:54.219Z,1012.9
2023-03-15T06:54:54.223Z,1012.8
2023-03-15T06:55:54.216Z,1012.8
2023-03-15T06:56:54.226Z,1012.9
2023-03-15T06:57:54.237Z,1012.8
2023-03-15T06:58:54.225Z,1012.8
2023-03-15T06:59:54.229Z,1012.9
2023-03-15T07:00:54.212Z,1012.9
2023-03-15T07:01:54.288Z,1012.9
2023-03-15T07:02:54.316Z,1012.9
2023-03-15T07:03:54.232Z,1012.9
2023-03-15T07:04:54.223Z,1012.9
2023-03-15T07:05:54.227Z,1012.9
2023-03-15T07:06:54.242Z,1013
2023-03-15T07:08:54.238Z,1013
2023-03-15T07:09:55.281Z,1013.1
2023-03-15T07:10:54.266Z,1013.1
2023-03-15T07:11:54.234Z,1013.1
2023-03-15T07:12:54.232Z,1013.1
2023-03-15T07:13:54.233Z,1013.1
2023-03-15T07:14:54.247Z,1013.2
2023-03-15T07:15:54.336Z,1013.2
2023-03-15T07:16:54.276Z,1013.2
2023-03-15T07:17:54.240Z,1013.2
2023-03-15T07:18:54.240Z,1013.3
2023-03-15T07:19:56.868Z,1013.3
2023-03-15T07:20:54.236Z,1013.3
2023-03-15T07:21:54.238Z,1013.3
2023-03-15T07:22:54.242Z,1013.3
2023-03-15T07:23:54.268Z,1013.3
2023-03-15T07:24:54.258Z,1013.3
2023-03-15T07:25:55.430Z,1013.4
2023-03-15T07:27:54.235Z,1013.4
2023-03-15T07:28:54.227Z,1013.4
2023-03-15T07:29:54.242Z,1013.3
2023-03-15T07:30:54.239Z,1013.4
2023-03-15T07:31:54.277Z,1013.3
2023-03-15T07:32:54.413Z,1013.4
2023-03-15T07:33:54.236Z,1013.4
2023-03-15T07:34:54.232Z,1013.5
2023-03-15T07:35:54.322Z,1013.5
2023-03-15T07:36:54.242Z,1013.5
2023-03-15T07:37:54.232Z,1013.5
2023-03-15T07:38:54.243Z,1013.5
2023-03-15T07:39:54.228Z,1013.6
2023-03-15T07:40:54.244Z,1013.6
2023-03-15T07:41:54.229Z,1013.6
2023-03-15T07:42:54.223Z,1013.6
2023-03-15T07:43:54.213Z,1013.6
2023-03-15T07:44:54.223Z,1013.6
2023-03-15T07:45:54.247Z,1013.7
2023-03-15T07:46:54.256Z,1013.7
2023-03-15T07:49:54.225Z,1013.8
2023-03-15T07:51:54.220Z,1013.8
2023-03-15T07:52:54.244Z,1013.8
2023-03-15T07:53:54.220Z,1013.9
2023-03-15T07:54:54.242Z,1013.9
2023-03-15T07:55:54.223Z,1013.9
2023-03-15T07:56:54.239Z,1013.9
2023-03-15T07:57:54.235Z,1013.9
2023-03-15T07:58:54.228Z,1014
2023-03-15T07:59:54.233Z,1014
2023-03-15T08:00:54.227Z,1014
2023-03-15T08:01:54.285Z,1014
2023-03-15T08:02:54.287Z,1014.1
2023-03-15T08:03:54.227Z,1014.1
2023-03-15T08:04:54.237Z,1014.1
2023-03-15T08:05:54.241Z,1014.1
2023-03-15T08:06:54.231Z,1014.1
2023-03-15T08:07:54.263Z,1014.2
2023-03-15T08:09:54.225Z,1014.2
2023-03-15T08:10:54.226Z,1014.2
2023-03-15T08:11:54.220Z,1014.2
2023-03-15T08:12:54.221Z,1014.2
2023-03-15T08:13:54.241Z,1014.3
2023-03-15T08:14:54.263Z,1014.3
2023-03-15T08:15:54.352Z,1014.3
2023-03-15T08:16:54.257Z,1014.3
2023-03-15T08:17:54.246Z,1014.3
2023-03-15T08:18:54.229Z,1014.3
2023-03-15T08:19:54.227Z,1014.3
2023-03-15T08:20:54.231Z,1014.4
2023-03-15T08:21:54.239Z,1014.4
2023-03-15T08:23:54.223Z,1014.4
2023-03-15T08:24:54.242Z,1014.4
2023-03-15T08:25:54.233Z,1014.4
2023-03-15T08:26:54.237Z,1014.4
2023-03-15T08:27:54.254Z,1014.4
2023-03-15T08:28:54.254Z,1014.4
2023-03-15T08:29:54.247Z,1014.4
2023-03-15T08:30:54.234Z,1014.5
2023-03-15T08:31:54.268Z,1014.5
2023-03-15T08:32:54.324Z,1014.5
2023-03-15T08:33:54.238Z,1014.5
2023-03-15T08:34:54.242Z,1014.5
2023-03-15T08:35:54.348Z,1014.5
2023-03-15T08:36:54.310Z,1014.6
2023-03-15T08:37:54.246Z,1014.5
2023-03-15T08:38:54.238Z,1014.6
2023-03-15T08:39:54.242Z,1014.6
2023-03-15T08:41:54.236Z,1014.6
2023-03-15T08:42:54.243Z,1014.6
2023-03-15T08:43:54.251Z,1014.6
2023-03-15T08:44:54.248Z,1014.6
2023-03-15T08:46:01.061Z,1014.6
2023-03-15T08:46:54.332Z,1014.6
2023-03-15T08:47:54.262Z,1014.6
2023-03-15T08:48:48.692Z,1014.6
2023-03-15T08:49:54.237Z,1014.6
2023-03-15T08:50:54.234Z,1014.7
2023-03-15T08:51:54.224Z,1014.7
2023-03-15T08:52:54.250Z,1014.7
2023-03-15T08:53:54.246Z,1014.7
2023-03-15T08:54:54.251Z,1014.8
2023-03-15T08:55:54.241Z,1014.8
2023-03-15T08:56:54.249Z,1014.8
2023-03-15T08:57:54.234Z,1014.9
2023-03-15T08:58:54.238Z,1014.8
2023-03-15T08:59:54.236Z,1014.9
2023-03-15T09:00:54.236Z,1014.9
2023-03-15T09:02:54.256Z,1015
2023-03-15T09:03:54.281Z,1014.9
2023-03-15T09:04:54.245Z,1015
2023-03-15T09:05:54.277Z,1014.9
2023-03-15T09:06:54.236Z,1015
2023-03-15T09:07:54.250Z,1015
2023-03-15T09:08:54.246Z,1015
2023-03-15T09:09:54.281Z,1015
2023-03-15T09:10:54.245Z,1015
2023-03-15T09:11:54.240Z,1015
2023-03-15T09:12:54.251Z,1015
2023-03-15T09:13:54.243Z,1015
2023-03-15T09:15:54.240Z,1015
2023-03-15T09:16:54.302Z,1015
2023-03-15T09:17:54.256Z,1015.1
2023-03-15T09:18:54.275Z,1015
2023-03-15T09:19:54.247Z,1015
2023-03-15T09:20:54.244Z,1015.1
2023-03-15T09:21:54.249Z,1015.1
2023-03-15T09:23:54.245Z,1015.1
2023-03-15T09:24:54.280Z,1015.1
2023-03-15T09:25:54.249Z,1015.1
2023-03-15T09:26:54.248Z,1015.1
2023-03-15T09:27:54.250Z,1015.2
2023-03-15T09:28:54.256Z,1015.2
2023-03-15T09:29:54.250Z,1015.2
2023-03-15T09:30:54.307Z,1015.2
2023-03-15T09:31:54.249Z,1015.2
2023-03-15T09:32:54.355Z,1015.2
2023-03-15T09:33:54.250Z,1015.2
2023-03-15T09:34:54.248Z,1015.2
2023-03-15T09:35:54.279Z,1015.2
2023-03-15T09:36:54.252Z,1015.3
2023-03-15T09:37:54.258Z,1015.3
2023-03-15T09:38:54.278Z,1015.3
2023-03-15T09:39:54.255Z,1015.3
2023-03-15T09:40:54.260Z,1015.3
2023-03-15T09:42:54.260Z,1015.3
2023-03-15T09:43:54.259Z,1015.3
2023-03-15T09:45:54.431Z,1015.4
2023-03-15T09:46:54.376Z,1015.4
2023-03-15T09:47:54.278Z,1015.3
2023-03-15T09:48:54.255Z,1015.3
2023-03-15T09:49:54.289Z,1015.4
2023-03-15T09:50:54.273Z,1015.4
2023-03-15T09:51:54.253Z,1015.3
2023-03-15T09:52:54.258Z,1015.4
2023-03-15T09:53:54.273Z,1015.3
2023-03-15T09:54:54.300Z,1015.4
2023-03-15T09:55:54.264Z,1015.4
2023-03-15T09:56:54.279Z,1015.4
2023-03-15T09:57:54.281Z,1015.4
2023-03-15T09:58:54.297Z,1015.3
2023-03-15T09:59:54.280Z,1015.3
2023-03-15T10:00:54.289Z,1015.3
2023-03-15T10:01:54.430Z,1015.3
2023-03-15T10:03:54.329Z,1015.3
2023-03-15T10:04:54.276Z,1015.3
2023-03-15T10:05:54.302Z,1015.3
2023-03-15T10:06:54.282Z,1015.3
2023-03-15T10:07:54.278Z,1015.2
2023-03-15T10:08:54.278Z,1015.3
2023-03-15T10:09:54.277Z,1015.2
2023-03-15T10:10:54.274Z,1015.3
2023-03-15T10:11:54.286Z,1015.3
2023-03-15T10:12:54.274Z,1015.3
2023-03-15T10:13:54.286Z,1015.3
2023-03-15T10:14:54.285Z,1015.3
2023-03-15T10:15:54.338Z,1015.3
2023-03-15T10:16:54.287Z,1015.3
2023-03-15T10:17:54.286Z,1015.3
2023-03-15T10:18:54.296Z,1015.3
2023-03-15T10:19:54.276Z,1015.3
2023-03-15T10:20:54.275Z,1015.2
2023-03-15T10:21:54.310Z,1015.3
2023-03-15T10:22:54.282Z,1015.3
2023-03-15T10:24:54.306Z,1015.3
2023-03-15T10:25:54.387Z,1015.4
2023-03-15T10:26:54.284Z,1015.3
2023-03-15T10:27:54.303Z,1015.3
2023-03-15T10:28:54.291Z,1015.3
2023-03-15T10:29:54.286Z,1015.3
2023-03-15T10:30:54.333Z,1015.3
2023-03-15T10:31:54.340Z,1015.4
2023-03-15T10:32:54.352Z,1015.4
2023-03-15T10:33:54.285Z,1015.3
2023-03-15T10:34:54.300Z,1015.3
2023-03-15T10:36:04.296Z,1015.2
2023-03-15T10:36:54.516Z,1015.3
2023-03-15T10:37:54.295Z,1015.2
2023-03-15T10:38:54.290Z,1015.3
2023-03-15T10:39:54.279Z,1015.3
2023-03-15T10:40:54.282Z,1015.3
2023-03-15T10:41:54.284Z,1015.2
2023-03-15T10:42:54.286Z,1015.3
2023-03-15T10:43:54.305Z,1015.3
2023-03-15T10:44:54.284Z,1015.3
2023-03-15T10:45:54.311Z,1015.3
2023-03-15T10:46:54.323Z,1015.3
2023-03-15T10:48:00.423Z,1015.3
2023-03-15T10:48:54.286Z,1015.3
2023-03-15T10:49:54.287Z,1015.3
2023-03-15T10:50:54.290Z,1015.4
2023-03-15T10:51:54.287Z,1015.4
2023-03-15T10:52:54.276Z,1015.4
2023-03-15T10:53:54.286Z,1015.4
2023-03-15T10:54:58.701Z,1015.4
2023-03-15T10:55:54.287Z,1015.4
2023-03-15T10:56:54.289Z,1015.4
2023-03-15T10:57:54.290Z,1015.4
2023-03-15T10:59:11.088Z,1015.4
2023-03-15T10:59:54.288Z,1015.4
2023-03-15T11:00:54.289Z,1015.4
2023-03-15T11:01:54.377Z,1015.4
2023-03-15T11:02:54.392Z,1015.3
2023-03-15T11:03:54.286Z,1015.4
2023-03-15T11:04:54.341Z,1015.4
2023-03-15T11:06:54.274Z,1015.4
2023-03-15T11:07:54.329Z,1015.3
2023-03-15T11:08:54.294Z,1015.4
2023-03-15T11:09:54.283Z,1015.4
2023-03-15T11:10:54.279Z,1015.4
2023-03-15T11:11:54.286Z,1015.4
2023-03-15T11:12:54.287Z,1015.4
2023-03-15T11:13:54.280Z,1015.4
2023-03-15T11:14:54.268Z,1015.4
2023-03-15T11:15:54.302Z,1015.5
2023-03-15T11:17:54.262Z,1015.5
2023-03-15T11:18:54.279Z,1015.5
2023-03-15T11:19:54.290Z,1015.5
2023-03-15T11:20:54.279Z,1015.5
2023-03-15T11:21:54.272Z,1015.5
2023-03-15T11:22:54.273Z,1015.6
2023-03-15T11:23:54.312Z,1015.6
2023-03-15T11:24:54.348Z,1015.6
2023-03-15T11:25:54.279Z,1015.6
2023-03-15T11:26:54.277Z,1015.6
2023-03-15T11:27:54.277Z,1015.6
2023-03-15T11:28:54.266Z,1015.6
2023-03-15T11:29:54.273Z,1015.6
2023-03-15T11:30:54.278Z,1015.7
2023-03-15T11:31:54.410Z,1015.6
2023-03-15T11:32:54.318Z,1015.7
2023-03-15T11:33:54.274Z,1015.7
2023-03-15T11:34:54.275Z,1015.7
2023-03-15T11:35:54.301Z,1015.7
2023-03-15T11:37:07.271Z,1015.7
2023-03-15T11:37:58.565Z,1015.7
2023-03-15T11:38:54.313Z,1015.7
2023-03-15T11:40:54.286Z,1015.7
2023-03-15T11:41:54.342Z,1015.7
2023-03-15T11:42:54.274Z,1015.7
2023-03-15T11:43:54.303Z,1015.7
2023-03-15T11:44:54.288Z,1015.7
2023-03-15T11:45:54.326Z,1015.7
2023-03-15T11:46:54.281Z,1015.7
2023-03-15T11:47:54.306Z,1015.8
2023-03-15T11:48:54.285Z,1015.8
2023-03-15T11:49:54.290Z,1015.8
2023-03-15T11:50:54.288Z,1015.7
2023-03-15T11:51:54.302Z,1015.7
2023-03-15T11:52:54.294Z,1015.7
2023-03-15T11:53:54.306Z,1015.7
2023-03-15T11:54:54.283Z,1015.8
2023-03-15T11:55:54.316Z,1015.7
2023-03-15T11:56:54.289Z,1015.7
2023-03-15T11:57:54.312Z,1015.7
2023-03-15T11:59:54.350Z,1015.7
2023-03-15T12:00:54.290Z,1015.7
2023-03-15T12:01:54.373Z,1015.7
2023-03-15T12:02:54.360Z,1015.7
2023-03-15T12:03:54.304Z,1015.7
2023-03-15T12:04:54.292Z,1015.7
2023-03-15T12:05:54.292Z,1015.7
2023-03-15T12:06:54.304Z,1015.7
2023-03-15T12:07:54.293Z,1015.8
2023-03-15T12:08:54.290Z,1015.8
2023-03-15T12:09:54.310Z,1015.8
2023-03-15T12:10:54.318Z,1015.8
2023-03-15T12:11:54.287Z,1015.8
2023-03-15T12:12:54.289Z,1015.8
2023-03-15T12:13:54.297Z,1015.8
2023-03-15T12:14:54.292Z,1015.7
2023-03-15T12:15:54.298Z,1015.8
2023-03-15T12:16:54.425Z,1015.7
2023-03-15T12:17:54.300Z,1015.7
2023-03-15T12:18:54.313Z,1015.7
2023-03-15T12:20:54.305Z,1015.7
2023-03-15T12:21:54.301Z,1015.8
2023-03-15T12:22:54.670Z,1015.7
2023-03-15T12:23:54.299Z,1015.7
2023-03-15T12:24:54.327Z,1015.8
2023-03-15T12:25:55.492Z,1015.7
2023-03-15T12:26:54.300Z,1015.7
2023-03-15T12:27:54.302Z,1015.7
2023-03-15T12:28:54.324Z,1015.7
2023-03-15T12:29:54.316Z,1015.7
2023-03-15T12:30:54.335Z,1015.6
2023-03-15T12:31:54.297Z,1015.6
2023-03-15T12:32:54.340Z,1015.6
2023-03-15T12:33:54.301Z,1015.6
2023-03-15T12:34:54.313Z,1015.6
2023-03-15T12:36:54.303Z,1015.5
2023-03-15T12:37:54.310Z,1015.6
2023-03-15T12:38:54.301Z,1015.6
2023-03-15T12:39:54.293Z,1015.6
2023-03-15T12:41:54.292Z,1015.6
2023-03-15T12:42:54.298Z,1015.5
2023-03-15T12:43:54.310Z,1015.5
2023-03-15T12:44:54.330Z,1015.6
2023-03-15T12:45:54.353Z,1015.6
2023-03-15T12:46:54.298Z,1015.5
2023-03-15T12:47:54.338Z,1015.5
2023-03-15T12:48:54.321Z,1015.5
2023-03-15T12:49:54.302Z,1015.5
2023-03-15T12:50:54.301Z,1015.5
2023-03-15T12:51:54.300Z,1015.5
2023-03-15T12:52:54.312Z,1015.6
2023-03-15T12:53:54.300Z,1015.6
2023-03-15T12:54:54.305Z,1015.6
2023-03-15T12:56:06.150Z,1015.5
2023-03-15T12:56:54.314Z,1015.5
2023-03-15T12:57:54.353Z,1015.5
2023-03-15T12:58:54.310Z,1015.6
2023-03-15T12:59:54.326Z,1015.6
2023-03-15T13:01:54.301Z,1015.6
2023-03-15T13:02:54.340Z,1015.6
2023-03-15T13:03:54.307Z,1015.6
2023-03-15T13:04:54.300Z,1015.6
2023-03-15T13:06:03.298Z,1015.5
2023-03-15T13:06:54.314Z,1015.5
2023-03-15T13:07:54.320Z,1015.6
2023-03-15T13:08:54.335Z,1015.6
2023-03-15T13:09:54.313Z,1015.5
2023-03-15T13:10:54.325Z,1015.6
2023-03-15T13:11:54.380Z,1015.6
2023-03-15T13:13:54.331Z,1015.6
2023-03-15T13:14:54.323Z,1015.5
2023-03-15T13:16:54.308Z,1015.5
2023-03-15T13:17:54.324Z,1015.5
2023-03-15T13:18:54.374Z,1015.5
2023-03-15T13:19:54.314Z,1015.5